Time;durP1;ratioP1;P1;durP2;ratioP2;P2;SDS_P1;SDS_P2;PMS_P1;PMS_P2;Temp;Humidity;BMP_temperature;BMP_pressure;BME280_temperature;BME280_humidity;BME280_pressure;Samples;Min_cycle;Max_cycle;Signal;HPM_P1;HPM_P2
2021/03/28 00:01:18;;;;;;;23.50;4.80;;;6.10;99.90;;;;;;5000963;28;20065;-86
2021/03/28 00:03:53;;;;;;;23.98;3.45;;;6.10;99.90;;;;;;5008673;28;20113;-86
2021/03/28 00:06:36;;;;;;;21.60;4.07;;;6.10;99.90;;;;;;5002313;28;20149;-86
2021/03/28 00:09:25;;;;;;;17.88;3.63;;;6.10;99.90;;;;;;4990190;28;20069;-86
2021/03/28 00:12:21;;;;;;;23.35;4.18;;;6.00;99.90;;;;;;5013419;28;20054;-86
2021/03/28 00:14:56;;;;;;;22.83;4.45;;;6.00;99.90;;;;;;4990190;28;20108;-87
2021/03/28 00:17:33;;;;;;;15.40;3.58;;;6.00;99.90;;;;;;4997216;28;20045;-86
2021/03/28 00:20:12;;;;;;;15.15;3.65;;;6.00;99.90;;;;;;4988070;28;20124;-86
2021/03/28 00:22:50;;;;;;;18.20;3.70;;;6.00;99.90;;;;;;4975048;28;20046;-86
2021/03/28 00:25:31;;;;;;;14.52;3.88;;;6.00;99.90;;;;;;4977764;28;20072;-87
2021/03/28 00:27:59;;;;;;;22.02;3.78;;;6.10;99.90;;;;;;5007259;28;20834;-87
2021/03/28 00:30:38;;;;;;;22.33;3.20;;;6.10;99.90;;;;;;4988283;28;20105;-86
2021/03/28 00:33:10;;;;;;;21.10;4.18;;;6.10;99.90;;;;;;4995716;28;20041;-87
2021/03/28 00:36:06;;;;;;;19.50;3.70;;;6.20;99.90;;;;;;5001775;28;20045;-86
2021/03/28 00:38:38;;;;;;;13.60;2.53;;;6.20;99.90;;;;;;4993668;28;20057;-86
2021/03/28 00:41:14;;;;;;;14.50;3.45;;;6.30;99.90;;;;;;5006507;28;20054;-88
2021/03/28 00:43:58;;;;;;;20.63;4.93;;;6.30;99.90;;;;;;5005267;28;20084;-88
2021/03/28 00:46:57;;;;;;;14.30;2.97;;;6.30;99.90;;;;;;5003349;28;20064;-87
2021/03/28 00:49:31;;;;;;;16.42;3.67;;;6.30;99.90;;;;;;5002904;28;20050;-87
2021/03/28 00:52:02;;;;;;;13.77;3.28;;;6.30;99.90;;;;;;4993339;28;20045;-84
2021/03/28 00:54:58;;;;;;;24.35;3.58;;;6.20;99.90;;;;;;4975982;28;20057;-85
2021/03/28 00:57:32;;;;;;;22.27;3.70;;;6.20;99.90;;;;;;4988560;28;20061;-86
2021/03/28 01:00:10;;;;;;;20.67;2.78;;;6.20;99.90;;;;;;4998425;28;20077;-87
2021/03/28 01:03:06;;;;;;;23.23;4.55;;;6.20;99.90;;;;;;5016891;28;20065;-86
2021/03/28 01:05:46;;;;;;;14.70;3.28;;;6.20;99.90;;;;;;5007534;28;20073;-86
2021/03/28 01:08:23;;;;;;;19.27;3.38;;;6.20;99.90;;;;;;5003677;28;20058;-87
2021/03/28 01:11:30;;;;;;;17.48;2.45;;;6.20;99.90;;;;;;5005790;28;20056;-87
2021/03/28 01:14:20;;;;;;;10.88;2.55;;;6.30;99.90;;;;;;5000250;28;20140;-87
2021/03/28 01:17:08;;;;;;;12.90;2.97;;;6.30;99.90;;;;;;5006616;28;20049;-87
2021/03/28 01:19:43;;;;;;;23.00;4.03;;;6.30;99.90;;;;;;5001617;28;20077;-87
2021/03/28 01:22:17;;;;;;;10.73;3.65;;;6.40;99.90;;;;;;4995664;28;20118;-87
2021/03/28 01:24:56;;;;;;;19.75;3.50;;;6.40;99.90;;;;;;4985783;28;20057;-87
2021/03/28 01:27:31;;;;;;;25.00;3.65;;;6.50;99.90;;;;;;5004983;28;20146;-87
2021/03/28 01:30:12;;;;;;;10.65;3.28;;;6.50;99.90;;;;;;5002532;28;20058;-86
2021/03/28 01:32:56;;;;;;;18.15;3.35;;;6.50;99.90;;;;;;4991492;28;20136;-86
2021/03/28 01:35:34;;;;;;;13.40;3.20;;;6.50;99.90;;;;;;5004891;28;20092;-87
2021/03/28 01:38:16;;;;;;;17.27;3.75;;;6.50;99.90;;;;;;4984110;28;20081;-87
2021/03/28 01:40:52;;;;;;;18.17;3.05;;;6.60;99.90;;;;;;5006772;28;20401;-87
2021/03/28 01:43:21;;;;;;;14.50;2.85;;;6.60;99.90;;;;;;5003683;28;20065;-87
2021/03/28 01:46:09;;;;;;;18.48;3.55;;;6.60;99.90;;;;;;4993821;28;20046;-86
2021/03/28 01:48:38;;;;;;;12.02;3.22;;;6.60;99.90;;;;;;4987369;28;20080;-86
2021/03/28 01:51:38;;;;;;;12.68;3.50;;;6.60;99.90;;;;;;4989241;28;20054;-87
2021/03/28 01:54:15;;;;;;;7.10;2.33;;;6.60;99.90;;;;;;4999208;28;20050;-87
2021/03/28 01:57:04;;;;;;;16.33;3.92;;;6.60;99.90;;;;;;4989861;28;20084;-87
2021/03/28 01:59:34;;;;;;;21.50;4.20;;;6.60;99.90;;;;;;4990992;28;20623;-87
2021/03/28 02:02:00;;;;;;;15.88;2.97;;;6.50;99.90;;;;;;4992938;28;20096;-87
2021/03/28 02:04:51;;;;;;;19.75;2.95;;;6.50;99.90;;;;;;4982682;28;20133;-86
2021/03/28 02:07:39;;;;;;;17.92;3.20;;;6.60;99.90;;;;;;5004963;28;20054;-87
2021/03/28 02:10:15;;;;;;;12.90;3.03;;;6.50;99.90;;;;;;5004578;28;20108;-87
2021/03/28 02:13:10;;;;;;;15.88;3.15;;;6.50;99.90;;;;;;4995902;28;20106;-88
2021/03/28 02:15:46;;;;;;;11.88;3.42;;;6.60;99.90;;;;;;5001372;28;20108;-87
2021/03/28 02:18:24;;;;;;;12.95;4.20;;;6.60;99.90;;;;;;4985211;28;20048;-86
2021/03/28 02:21:19;;;;;;;17.80;3.47;;;6.60;99.90;;;;;;4989330;28;20073;-86
2021/03/28 02:24:13;;;;;;;10.55;3.47;;;6.50;99.90;;;;;;4976340;28;20064;-86
2021/03/28 02:27:07;;;;;;;17.88;3.80;;;6.60;99.90;;;;;;4969125;28;20046;-88
2021/03/28 02:29:46;;;;;;;13.20;2.87;;;6.60;99.90;;;;;;4989449;28;20061;-87
2021/03/28 02:32:51;;;;;;;15.85;2.83;;;6.60;99.90;;;;;;4997196;28;20046;-87
2021/03/28 02:35:39;;;;;;;18.67;3.22;;;6.60;99.90;;;;;;4969340;28;20046;-88
2021/03/28 02:38:28;;;;;;;20.13;4.15;;;6.60;99.90;;;;;;4985431;28;20100;-87
2021/03/28 02:41:15;;;;;;;15.70;2.88;;;6.60;99.90;;;;;;4981671;28;20056;-87
2021/03/28 02:43:53;;;;;;;17.58;3.55;;;6.50;99.90;;;;;;4987478;28;20077;-87
2021/03/28 02:46:26;;;;;;;15.65;3.15;;;6.50;99.90;;;;;;5006470;28;20058;-87
2021/03/28 02:49:12;;;;;;;13.63;3.10;;;6.50;99.90;;;;;;5002372;28;20042;-86
2021/03/28 02:52:19;;;;;;;15.10;2.78;;;6.40;99.90;;;;;;4986580;28;20105;-86
2021/03/28 02:55:11;;;;;;;17.25;4.05;;;6.40;99.90;;;;;;4988711;28;20060;-87
2021/03/28 02:57:53;;;;;;;19.77;3.13;;;6.40;99.90;;;;;;4988061;28;20574;-86
2021/03/28 03:00:38;;;;;;;18.77;2.70;;;6.30;99.90;;;;;;5007087;28;20081;-86
2021/03/28 03:03:30;;;;;;;16.40;4.13;;;6.30;99.90;;;;;;4985624;28;20054;-87
2021/03/28 03:06:06;;;;;;;23.08;3.72;;;6.30;99.90;;;;;;5001838;28;20373;-86
2021/03/28 03:08:56;;;;;;;17.00;3.30;;;6.30;99.90;;;;;;4990629;28;20050;-87
2021/03/28 03:11:57;;;;;;;13.90;3.80;;;6.30;99.90;;;;;;4978431;28;20057;-87
2021/03/28 03:15:00;;;;;;;11.48;2.63;;;6.30;99.90;;;;;;4990216;28;20152;-88
2021/03/28 03:17:50;;;;;;;25.48;3.28;;;6.30;99.90;;;;;;4986754;28;20124;-88
2021/03/28 03:20:23;;;;;;;14.60;3.10;;;6.30;99.90;;;;;;5000140;28;20737;-88
2021/03/28 03:23:14;;;;;;;12.27;2.93;;;6.30;99.90;;;;;;4999481;28;20077;-88
2021/03/28 03:26:02;;;;;;;18.08;3.17;;;6.30;99.90;;;;;;4989563;28;20341;-87
2021/03/28 03:28:50;;;;;;;16.02;4.35;;;6.30;99.90;;;;;;4989958;28;21252;-87
2021/03/28 03:31:31;;;;;;;17.13;3.53;;;6.20;99.90;;;;;;4988374;28;20054;-87
2021/03/28 03:34:38;;;;;;;19.60;3.38;;;6.20;99.90;;;;;;5008037;28;20077;-87
2021/03/28 03:37:37;;;;;;;17.38;3.28;;;6.20;99.90;;;;;;4992078;28;20046;-88
2021/03/28 03:40:29;;;;;;;13.85;3.28;;;6.10;99.90;;;;;;4982405;28;20050;-87
2021/03/28 03:43:09;;;;;;;12.95;3.60;;;6.10;99.90;;;;;;4987061;28;20105;-87
2021/03/28 03:45:41;;;;;;;21.45;3.63;;;6.10;99.90;;;;;;4993710;28;20042;-88
2021/03/28 03:48:10;;;;;;;10.45;3.10;;;6.10;99.90;;;;;;4995771;28;20489;-87
2021/03/28 03:50:49;;;;;;;19.65;4.70;;;6.10;99.90;;;;;;4990310;28;20045;-85
2021/03/28 03:53:48;;;;;;;10.60;2.90;;;6.10;99.90;;;;;;4990903;28;20053;-86
2021/03/28 03:56:34;;;;;;;20.13;3.72;;;6.10;99.90;;;;;;4988017;28;20081;-87
2021/03/28 03:59:21;;;;;;;14.18;3.83;;;6.10;99.90;;;;;;4991405;28;20053;-86
2021/03/28 04:01:56;;;;;;;21.65;4.53;;;6.10;99.90;;;;;;5001902;28;20073;-87
2021/03/28 04:05:01;;;;;;;17.95;3.67;;;6.10;99.90;;;;;;4987771;28;20113;-86
2021/03/28 04:07:39;;;;;;;13.55;3.35;;;6.10;99.90;;;;;;4963946;28;20074;-88
2021/03/28 04:10:28;;;;;;;24.30;3.95;;;6.10;99.90;;;;;;4992360;28;20151;-88
2021/03/28 04:13:06;;;;;;;14.75;3.65;;;6.10;99.90;;;;;;4985196;28;20104;-86
2021/03/28 04:15:49;;;;;;;20.33;4.05;;;6.20;99.90;;;;;;4985739;28;20149;-87
2021/03/28 04:18:31;;;;;;;14.60;4.13;;;6.20;99.90;;;;;;5006090;28;20409;-87
2021/03/28 04:21:09;;;;;;;13.10;3.80;;;6.20;99.90;;;;;;4979088;28;20074;-88
2021/03/28 04:23:53;;;;;;;16.67;4.18;;;6.30;99.90;;;;;;5004156;28;20137;-86
2021/03/28 04:26:57;;;;;;;17.83;4.60;;;6.30;99.90;;;;;;5005730;28;20085;-87
2021/03/28 04:29:23;;;;;;;16.60;3.90;;;6.30;99.90;;;;;;4988534;28;20051;-86
2021/03/28 04:32:02;;;;;;;14.80;4.75;;;6.40;99.90;;;;;;4988873;28;20137;-87
2021/03/28 04:34:58;;;;;;;19.33;5.43;;;6.40;99.90;;;;;;5002240;28;20046;-86
2021/03/28 04:37:52;;;;;;;15.63;4.40;;;6.40;99.90;;;;;;4993415;28;20413;-87
2021/03/28 04:40:43;;;;;;;21.33;4.68;;;6.50;99.90;;;;;;4992102;28;20069;-87
2021/03/28 04:43:28;;;;;;;15.82;4.35;;;6.50;99.90;;;;;;4989222;28;20074;-87
2021/03/28 04:46:43;;;;;;;17.13;5.18;;;6.50;99.90;;;;;;4999002;28;20821;-87
2021/03/28 04:49:37;;;;;;;16.65;4.22;;;6.50;99.90;;;;;;5002289;28;20069;-86
2021/03/28 04:52:18;;;;;;;12.18;5.03;;;6.50;99.90;;;;;;4984515;28;20093;-87
2021/03/28 04:54:44;;;;;;;12.27;3.70;;;6.50;99.90;;;;;;4991788;28;20046;-86
2021/03/28 04:57:47;;;;;;;15.93;4.93;;;6.50;99.90;;;;;;4989547;28;20053;-86
2021/03/28 05:00:28;;;;;;;14.82;3.92;;;6.50;99.90;;;;;;4981722;28;26051;-87
2021/03/28 05:03:08;;;;;;;18.85;4.18;;;6.50;99.90;;;;;;4990259;28;21030;-87
2021/03/28 05:05:57;;;;;;;11.68;4.18;;;6.50;99.90;;;;;;4967464;28;20050;-87
2021/03/28 05:08:32;;;;;;;13.40;4.70;;;6.40;99.90;;;;;;4992987;28;20050;-86
2021/03/28 05:11:20;;;;;;;25.10;4.15;;;6.30;99.90;;;;;;4986160;28;20058;-86
2021/03/28 05:14:01;;;;;;;25.58;5.65;;;6.30;99.90;;;;;;4992574;28;20152;-86
2021/03/28 05:16:57;;;;;;;16.40;4.45;;;6.30;99.90;;;;;;5004968;28;20068;-86
2021/03/28 05:19:30;;;;;;;16.40;3.67;;;6.20;99.90;;;;;;5003501;28;20045;-86
2021/03/28 05:22:33;;;;;;;19.70;4.78;;;6.30;99.90;;;;;;5005466;28;20992;-88
2021/03/28 05:25:16;;;;;;;20.13;4.00;;;6.20;99.90;;;;;;4989453;28;20100;-86
2021/03/28 05:28:17;;;;;;;18.17;3.97;;;6.20;99.90;;;;;;5002143;28;20482;-86
2021/03/28 05:31:45;;;;;;;10.90;4.07;;;6.20;99.90;;;;;;4974902;28;20081;-86
2021/03/28 05:34:49;;;;;;;14.32;4.68;;;6.20;99.90;;;;;;4992765;28;20065;-86
2021/03/28 05:37:52;;;;;;;18.80;4.38;;;6.20;99.90;;;;;;4986576;28;20121;-85
2021/03/28 05:40:45;;;;;;;14.15;4.53;;;6.20;99.90;;;;;;4997066;28;20103;-86
2021/03/28 05:43:35;;;;;;;12.70;4.10;;;6.20;99.90;;;;;;4985213;28;20070;-86
2021/03/28 05:46:07;;;;;;;15.10;3.05;;;6.20;99.90;;;;;;5000971;28;20097;-86
2021/03/28 05:49:03;;;;;;;13.13;3.30;;;6.30;99.90;;;;;;4987816;28;20073;-87
2021/03/28 05:52:19;;;;;;;15.07;3.53;;;6.30;99.90;;;;;;4981987;28;20059;-86
2021/03/28 05:55:08;;;;;;;;;;;6.30;99.90;;;;;;4935572;29;20072;-86
2021/03/28 05:57:44;;;;;;;14.98;3.63;;;6.40;99.90;;;;;;4976269;28;19960;-87
2021/03/28 06:00:13;;;;;;;14.80;3.38;;;6.40;99.90;;;;;;4992420;28;20050;-87
2021/03/28 06:03:09;;;;;;;13.85;4.57;;;6.50;99.90;;;;;;5000108;28;20449;-87
2021/03/28 06:06:13;;;;;;;11.20;3.03;;;6.50;99.90;;;;;;5000456;28;20046;-87
2021/03/28 06:09:10;;;;;;;12.82;3.50;;;6.70;99.90;;;;;;5002972;28;20042;-87
2021/03/28 06:11:42;;;;;;;12.18;3.00;;;6.80;99.90;;;;;;4980611;28;20087;-87
2021/03/28 06:14:29;;;;;;;18.55;3.47;;;6.90;99.90;;;;;;4989411;28;20099;-86
2021/03/28 06:17:17;;;;;;;15.63;4.35;;;7.00;99.90;;;;;;4997801;28;20140;-87
2021/03/28 06:20:22;;;;;;;5.75;2.20;;;7.10;99.90;;;;;;4982629;28;20069;-87
2021/03/28 06:23:14;;;;;;;11.88;2.85;;;7.30;99.90;;;;;;4987773;28;20046;-86
2021/03/28 06:26:05;;;;;;;10.88;2.55;;;7.30;99.90;;;;;;5003090;28;20050;-86
2021/03/28 06:28:55;;;;;;;11.93;2.55;;;7.40;99.90;;;;;;4989039;28;20068;-86
2021/03/28 06:31:45;;;;;;;17.08;3.65;;;7.50;99.90;;;;;;5006996;28;20100;-87
2021/03/28 06:34:42;;;;;;;14.85;3.28;;;7.60;99.90;;;;;;4986488;28;20060;-88
2021/03/28 06:37:12;;;;;;;6.53;2.03;;;7.60;99.90;;;;;;4983986;28;20061;-88
2021/03/28 06:39:53;;;;;;;11.60;2.25;;;7.60;99.90;;;;;;4984122;28;20056;-88
2021/03/28 06:42:56;;;;;;;12.07;2.67;;;7.60;99.90;;;;;;4987970;28;20058;-88
2021/03/28 06:45:49;;;;;;;9.38;2.38;;;7.70;99.90;;;;;;4995846;28;20054;-87
2021/03/28 06:48:34;;;;;;;14.25;3.38;;;7.80;99.90;;;;;;4997842;28;20057;-87
2021/03/28 06:51:43;;;;;;;12.50;3.05;;;7.80;99.90;;;;;;4987138;28;20129;-88
2021/03/28 06:54:41;;;;;;;8.13;1.95;;;7.80;99.90;;;;;;4990159;28;20073;-87
2021/03/28 06:57:07;;;;;;;9.65;2.17;;;7.90;99.90;;;;;;4983350;28;20110;-87
2021/03/28 06:59:54;;;;;;;13.90;3.35;;;7.90;99.90;;;;;;4997852;28;20054;-87
2021/03/28 07:02:44;;;;;;;17.10;3.35;;;7.90;99.90;;;;;;5002020;28;20053;-88
2021/03/28 07:05:45;;;;;;;7.38;2.38;;;7.80;99.90;;;;;;5003885;28;20055;-86
2021/03/28 07:08:47;;;;;;;13.50;2.22;;;7.80;99.90;;;;;;4992783;28;20050;-87
2021/03/28 07:11:27;;;;;;;11.88;2.70;;;7.90;99.90;;;;;;4995053;28;20053;-86
2021/03/28 07:13:56;;;;;;;7.22;2.70;;;7.90;99.90;;;;;;4980968;28;20098;-87
2021/03/28 07:16:44;;;;;;;17.13;3.33;;;8.20;99.90;;;;;;4990160;28;20076;-87
2021/03/28 07:19:28;;;;;;;12.40;2.22;;;8.40;99.90;;;;;;5007993;28;20053;-87
2021/03/28 07:21:58;;;;;;;11.20;2.42;;;8.70;99.90;;;;;;4978424;28;20141;-88
2021/03/28 07:25:02;;;;;;;11.68;2.50;;;8.90;99.90;;;;;;4990544;28;20116;-88
2021/03/28 07:27:59;;;;;;;10.20;2.80;;;9.10;99.90;;;;;;4991934;28;20478;-87
2021/03/28 07:30:36;;;;;;;9.10;1.95;;;9.20;99.90;;;;;;4977360;28;20054;-88
2021/03/28 07:33:33;;;;;;;10.82;2.35;;;9.30;99.90;;;;;;4994839;28;20061;-88
2021/03/28 07:36:17;;;;;;;16.60;4.25;;;9.30;99.90;;;;;;5006892;28;20071;-89
2021/03/28 07:39:20;;;;;;;9.30;2.42;;;9.30;99.90;;;;;;4991568;28;20101;-88
2021/03/28 07:42:20;;;;;;;11.38;2.60;;;9.40;99.90;;;;;;4985590;28;20149;-88
2021/03/28 07:45:03;;;;;;;10.93;3.25;;;9.40;99.90;;;;;;4974742;28;20069;-89
2021/03/28 07:48:17;;;;;;;10.43;3.28;;;9.40;99.90;;;;;;4973002;28;20043;-89
2021/03/28 07:51:02;;;;;;;6.97;2.38;;;9.60;99.90;;;;;;4998875;28;20125;-88
2021/03/28 07:53:53;;;;;;;8.13;2.20;;;10.00;99.90;;;;;;4998111;28;20052;-87
2021/03/28 07:56:41;;;;;;;11.57;3.15;;;10.20;99.90;;;;;;4977410;28;20045;-87
2021/03/28 08:00:06;;;;;;;11.40;2.70;;;10.50;99.90;;;;;;5001286;28;20054;-88
2021/03/28 08:02:35;;;;;;;7.15;2.10;;;10.60;99.90;;;;;;4979393;28;20070;-88
2021/03/28 08:05:13;;;;;;;10.27;2.97;;;10.80;99.90;;;;;;4984558;28;20053;-88
2021/03/28 08:08:18;;;;;;;10.25;4.03;;;10.90;99.90;;;;;;4983294;28;20043;-88
2021/03/28 08:11:12;;;;;;;11.93;2.25;;;11.00;99.90;;;;;;4970603;28;20093;-87
2021/03/28 08:14:16;;;;;;;12.03;3.00;;;11.20;99.90;;;;;;4986259;28;20149;-86
2021/03/28 08:17:24;;;;;;;8.00;2.00;;;11.30;99.90;;;;;;4922893;28;20051;-87
2021/03/28 08:20:34;;;;;;;10.10;2.38;;;11.20;99.90;;;;;;4993944;28;20084;-86
2021/03/28 08:23:11;;;;;;;6.72;2.40;;;11.10;99.90;;;;;;4976443;28;20046;-87
2021/03/28 08:25:50;;;;;;;8.75;1.90;;;11.10;99.90;;;;;;4989277;28;20057;-87
2021/03/28 08:28:31;;;;;;;7.57;2.15;;;11.20;99.90;;;;;;4976576;28;20100;-86
2021/03/28 08:31:20;;;;;;;26.63;3.20;;;11.30;99.90;;;;;;5005185;28;20046;-88
2021/03/28 08:34:26;;;;;;;5.20;1.60;;;11.40;99.90;;;;;;4987935;28;20051;-89
2021/03/28 08:37:17;;;;;;;6.60;2.25;;;11.50;99.90;;;;;;5006178;28;20050;-87
2021/03/28 08:39:55;;;;;;;11.55;2.20;;;11.70;99.90;;;;;;4990881;28;20080;-86
2021/03/28 08:42:47;;;;;;;10.43;2.55;;;11.80;99.90;;;;;;4967011;28;20054;-86
2021/03/28 08:45:28;;;;;;;9.23;2.33;;;11.70;99.90;;;;;;4980901;28;20049;-86
2021/03/28 08:48:23;;;;;;;10.00;2.30;;;11.70;99.90;;;;;;4981960;28;20409;-87
2021/03/28 08:51:17;;;;;;;9.00;2.75;;;11.70;99.90;;;;;;4985325;28;20089;-87
2021/03/28 08:53:58;;;;;;;6.95;2.28;;;11.90;99.90;;;;;;5002311;28;20063;-87
2021/03/28 08:56:28;;;;;;;9.90;2.63;;;12.00;99.90;;;;;;5000772;28;20486;-87
2021/03/28 08:59:13;;;;;;;9.10;2.83;;;12.10;99.90;;;;;;5004996;28;20470;-87
2021/03/28 09:01:58;;;;;;;5.60;2.65;;;12.10;99.90;;;;;;4985320;28;20085;-87
2021/03/28 09:04:36;;;;;;;10.95;2.72;;;12.30;99.90;;;;;;5004323;28;20048;-87
2021/03/28 09:07:19;;;;;;;11.18;3.17;;;12.50;99.90;;;;;;4959689;28;20500;-87
2021/03/28 09:10:10;;;;;;;9.02;3.00;;;12.60;99.90;;;;;;4978833;28;20054;-87
2021/03/28 09:12:54;;;;;;;7.40;1.90;;;12.80;99.90;;;;;;5002426;28;20047;-89
2021/03/28 09:15:26;;;;;;;8.95;2.63;;;13.10;99.90;;;;;;4951349;28;20056;-88
2021/03/28 09:18:27;;;;;;;8.65;2.15;;;13.30;99.90;;;;;;4965241;28;20060;-88
2021/03/28 09:21:42;;;;;;;7.22;2.33;;;13.50;99.90;;;;;;4966895;28;20058;-87
2021/03/28 09:24:15;;;;;;;8.98;1.65;;;13.70;99.90;;;;;;4999318;28;20050;-88
2021/03/28 09:27:18;;;;;;;11.82;1.88;;;13.80;97.60;;;;;;5000097;28;20055;-88
2021/03/28 09:30:04;;;;;;;12.55;3.00;;;13.80;97.90;;;;;;4983977;28;20080;-87
2021/03/28 09:32:45;;;;;;;5.38;2.53;;;13.80;95.90;;;;;;4997061;28;20046;-88
2021/03/28 09:35:40;;;;;;;8.68;2.03;;;13.70;95.90;;;;;;4981443;28;20136;-88
2021/03/28 09:38:36;;;;;;;8.50;2.35;;;13.60;96.10;;;;;;4985710;28;20412;-88
2021/03/28 09:41:21;;;;;;;3.90;1.40;;;13.50;94.40;;;;;;4990736;28;20058;-88
2021/03/28 09:44:24;;;;;;;11.23;1.90;;;13.40;97.90;;;;;;5000406;28;20088;-88
2021/03/28 09:47:18;;;;;;;10.95;2.40;;;13.30;98.80;;;;;;5002364;28;20473;-87
2021/03/28 09:50:04;;;;;;;10.13;1.90;;;13.30;99.20;;;;;;5000517;28;20054;-87
2021/03/28 09:53:11;;;;;;;10.82;2.83;;;13.30;99.30;;;;;;4997315;28;20320;-88
2021/03/28 09:56:19;;;;;;;7.28;1.60;;;13.20;99.20;;;;;;5000164;28;20053;-87
2021/03/28 09:58:58;;;;;;;9.70;3.15;;;13.30;99.10;;;;;;4936076;28;20054;-88
2021/03/28 10:01:38;;;;;;;8.70;2.20;;;13.40;97.90;;;;;;4980610;28;20111;-88
2021/03/28 10:04:32;;;;;;;10.23;2.38;;;13.30;98.30;;;;;;4999759;28;20084;-88
2021/03/28 10:07:02;;;;;;;9.95;2.67;;;13.30;98.10;;;;;;5002799;28;20110;-87
2021/03/28 10:09:38;;;;;;;7.97;1.70;;;13.20;99.00;;;;;;4985546;28;20046;-87
2021/03/28 10:12:39;;;;;;;8.38;2.08;;;13.20;99.90;;;;;;4977091;28;20521;-87
2021/03/28 10:15:19;;;;;;;6.47;1.58;;;13.10;99.20;;;;;;4968167;28;20041;-87
2021/03/28 10:18:14;;;;;;;7.43;2.33;;;13.10;98.00;;;;;;5006334;28;20057;-87
2021/03/28 10:20:50;;;;;;;10.77;1.67;;;13.20;99.90;;;;;;4989898;28;20167;-88
2021/03/28 10:23:37;;;;;;;8.35;2.20;;;13.30;99.20;;;;;;4993761;28;20046;-87
2021/03/28 10:26:46;;;;;;;10.73;3.42;;;13.40;97.50;;;;;;4990473;28;20047;-87
2021/03/28 10:29:51;;;;;;;6.57;2.30;;;13.30;98.60;;;;;;4988734;28;20050;-88
2021/03/28 10:32:59;;;;;;;8.10;1.52;;;13.30;98.50;;;;;;4997333;28;20046;-88
2021/03/28 10:35:26;;;;;;;6.00;1.48;;;13.30;98.80;;;;;;4908186;29;20063;-87
2021/03/28 10:38:11;;;;;;;11.50;1.85;;;13.30;99.90;;;;;;4929679;28;20057;-88
2021/03/28 10:40:58;;;;;;;6.78;1.67;;;13.30;99.90;;;;;;4984164;28;20058;-88
2021/03/28 10:43:43;;;;;;;11.23;2.85;;;13.20;99.90;;;;;;4989834;28;20101;-87
2021/03/28 10:46:10;;;;;;;6.75;2.08;;;12.90;99.90;;;;;;5005864;28;20048;-86
2021/03/28 10:48:45;;;;;;;13.90;2.58;;;12.70;99.90;;;;;;4986145;28;20046;-87
2021/03/28 10:51:39;;;;;;;10.02;2.38;;;12.40;99.90;;;;;;5004607;28;20084;-87
2021/03/28 10:54:13;;;;;;;9.75;2.40;;;12.10;99.90;;;;;;4993270;28;20038;-87
2021/03/28 10:57:19;;;;;;;8.57;2.50;;;11.70;99.90;;;;;;4986297;28;20104;-87
2021/03/28 11:00:30;;;;;;;11.63;2.10;;;11.50;99.90;;;;;;5002249;28;20482;-87
2021/03/28 11:03:26;;;;;;;12.25;2.80;;;11.40;99.90;;;;;;4983016;28;20089;-87
2021/03/28 11:06:33;;;;;;;6.18;2.40;;;11.50;99.90;;;;;;4974298;28;20057;-87
2021/03/28 11:09:09;;;;;;;9.48;2.67;;;11.50;99.90;;;;;;4954950;28;20548;-87
2021/03/28 11:12:02;;;;;;;9.48;2.72;;;11.50;99.90;;;;;;4980445;28;20053;-87
2021/03/28 11:14:56;;;;;;;6.80;2.22;;;11.60;99.90;;;;;;4980213;28;20061;-88
2021/03/28 11:17:41;;;;;;;7.75;2.38;;;11.70;99.90;;;;;;4997248;28;20061;-88
2021/03/28 11:20:24;;;;;;;14.30;3.30;;;11.80;99.90;;;;;;5002859;28;20054;-87
2021/03/28 11:23:12;;;;;;;8.13;2.40;;;11.70;99.90;;;;;;4968332;28;20057;-88
2021/03/28 11:25:57;;;;;;;12.38;3.30;;;11.60;99.90;;;;;;5000054;28;20050;-88
2021/03/28 11:28:46;;;;;;;9.52;1.80;;;11.40;99.90;;;;;;4975926;28;20065;-88
2021/03/28 11:31:25;;;;;;;18.02;2.78;;;11.20;99.90;;;;;;4983458;28;20054;-87
2021/03/28 11:34:10;;;;;;;9.85;2.33;;;11.00;99.90;;;;;;4987866;28;20112;-87
2021/03/28 11:37:06;;;;;;;12.07;2.72;;;10.80;99.90;;;;;;4992203;28;20050;-86
2021/03/28 11:39:35;;;;;;;17.15;3.22;;;10.70;99.90;;;;;;4990450;28;20057;-87
2021/03/28 11:42:03;;;;;;;12.95;3.10;;;10.60;99.90;;;;;;5000439;28;20077;-87
2021/03/28 11:44:36;;;;;;;11.45;2.60;;;10.50;99.90;;;;;;4989655;28;20118;-87
2021/03/28 11:47:12;;;;;;;14.90;2.30;;;10.40;99.90;;;;;;4988926;28;20416;-87
2021/03/28 11:50:02;;;;;;;9.82;2.45;;;10.40;99.90;;;;;;5004717;28;20046;-87
2021/03/28 11:52:50;;;;;;;13.52;2.58;;;10.30;99.90;;;;;;4983427;28;20054;-88
2021/03/28 11:55:41;;;;;;;6.65;2.13;;;10.20;99.90;;;;;;4994738;28;20076;-87
2021/03/28 11:58:55;;;;;;;7.82;2.60;;;10.10;99.90;;;;;;4998232;28;20161;-87
2021/03/28 12:01:58;;;;;;;8.50;2.08;;;10.00;99.90;;;;;;4977624;28;20053;-88
2021/03/28 12:04:32;;;;;;;10.48;2.13;;;10.00;99.90;;;;;;4979050;28;20148;-87
2021/03/28 12:07:12;;;;;;;11.77;2.55;;;10.10;99.90;;;;;;4992487;28;20088;-87
2021/03/28 12:09:40;;;;;;;12.77;2.28;;;10.10;99.90;;;;;;4984167;28;20054;-87
2021/03/28 12:12:30;;;;;;;9.65;2.85;;;10.20;99.90;;;;;;4986386;28;20050;-88
2021/03/28 12:15:35;;;;;;;16.35;4.00;;;10.30;99.90;;;;;;5009591;28;20045;-87
2021/03/28 12:18:23;;;;;;;12.13;2.47;;;10.30;99.90;;;;;;5012900;28;20042;-87
2021/03/28 12:21:05;;;;;;;11.95;2.58;;;10.40;99.90;;;;;;4959146;28;20289;-87
2021/03/28 12:23:50;;;;;;;8.98;1.77;;;10.40;99.90;;;;;;4950748;28;20144;-88
2021/03/28 12:26:19;;;;;;;;;;;10.40;99.90;;;;;;4980210;28;20079;-87
2021/03/28 12:28:48;;;;;;;8.05;2.03;;;10.40;99.90;;;;;;4970729;28;19926;-88
2021/03/28 12:31:29;;;;;;;11.70;2.63;;;10.40;99.90;;;;;;4964164;28;20053;-88
2021/03/28 12:34:25;;;;;;;14.40;2.20;;;10.40;99.90;;;;;;4972738;28;20208;-87
2021/03/28 12:36:54;;;;;;;9.95;2.15;;;10.40;99.90;;;;;;4989613;28;20118;-88
2021/03/28 12:39:30;;;;;;;13.85;2.60;;;10.40;99.90;;;;;;4965930;28;20054;-88
2021/03/28 12:42:18;;;;;;;13.48;2.70;;;10.50;99.90;;;;;;4976005;28;20524;-87
2021/03/28 12:44:47;;;;;;;13.90;2.65;;;10.50;99.90;;;;;;4999151;28;20144;-87
2021/03/28 12:47:19;;;;;;;10.05;2.72;;;10.60;99.90;;;;;;4973661;28;20533;-88
2021/03/28 12:50:26;;;;;;;10.80;2.45;;;10.70;99.90;;;;;;4993579;28;20077;-88
2021/03/28 12:53:03;;;;;;;7.78;1.48;;;10.70;99.90;;;;;;4979472;28;20072;-87
2021/03/28 12:56:01;;;;;;;12.00;2.13;;;10.70;99.90;;;;;;4978196;28;20061;-87
2021/03/28 12:58:43;;;;;;;10.32;2.72;;;10.80;99.90;;;;;;4964984;28;20049;-87
2021/03/28 13:01:26;;;;;;;9.48;1.98;;;10.80;99.90;;;;;;4995934;28;20497;-87
2021/03/28 13:04:03;;;;;;;8.85;2.67;;;10.90;99.90;;;;;;4991004;28;20046;-87
2021/03/28 13:06:49;;;;;;;16.35;2.30;;;11.00;99.90;;;;;;4984145;28;20052;-86
2021/03/28 13:09:16;;;;;;;10.63;2.35;;;11.00;99.90;;;;;;4988023;28;20069;-86
2021/03/28 13:12:17;;;;;;;10.73;2.00;;;11.10;99.90;;;;;;4987108;28;20122;-87
2021/03/28 13:14:50;;;;;;;15.65;2.80;;;11.10;99.90;;;;;;4982233;28;20867;-86
2021/03/28 13:17:25;;;;;;;9.95;2.28;;;11.10;99.90;;;;;;4990684;28;20081;-87
2021/03/28 13:19:55;;;;;;;11.88;2.38;;;11.10;99.90;;;;;;4988528;28;20132;-87
2021/03/28 13:22:43;;;;;;;13.07;1.55;;;11.10;99.90;;;;;;4979199;28;20054;-87
2021/03/28 13:25:16;;;;;;;13.23;4.03;;;11.10;99.90;;;;;;4985314;28;20070;-87
2021/03/28 13:27:48;;;;;;;7.90;1.70;;;11.10;99.90;;;;;;5001894;28;20046;-87
2021/03/28 13:30:21;;;;;;;7.15;1.35;;;11.10;99.90;;;;;;4987912;28;20069;-87
2021/03/28 13:32:50;;;;;;;13.10;2.15;;;11.20;99.90;;;;;;4983932;28;20048;-86
2021/03/28 13:35:34;;;;;;;7.03;1.85;;;11.20;99.90;;;;;;4973893;28;20050;-87
2021/03/28 13:38:34;;;;;;;8.32;1.77;;;11.30;99.90;;;;;;4984520;28;20157;-88
2021/03/28 13:41:20;;;;;;;13.68;1.80;;;11.40;99.90;;;;;;5001909;28;20052;-88
2021/03/28 13:43:47;;;;;;;15.70;2.63;;;11.50;99.90;;;;;;5000608;28;20553;-88
2021/03/28 13:46:20;;;;;;;11.23;1.83;;;11.60;99.90;;;;;;4980426;28;20498;-86
2021/03/28 13:48:49;;;;;;;8.63;1.60;;;11.70;99.90;;;;;;4978381;28;20053;-87
2021/03/28 13:51:17;;;;;;;10.00;2.00;;;11.80;99.90;;;;;;4987289;28;20549;-86
2021/03/28 13:53:59;;;;;;;9.13;2.05;;;11.80;99.90;;;;;;4986007;28;20072;-86
2021/03/28 13:56:44;;;;;;;10.45;2.17;;;11.90;99.90;;;;;;4986373;28;20076;-86
2021/03/28 13:59:31;;;;;;;15.75;1.75;;;11.90;99.90;;;;;;4996374;28;20112;-87
2021/03/28 14:02:02;;;;;;;11.80;1.88;;;11.90;99.90;;;;;;5001486;28;20041;-87
2021/03/28 14:04:38;;;;;;;11.68;3.15;;;11.90;99.90;;;;;;4998296;28;20073;-86
2021/03/28 14:07:15;;;;;;;15.23;3.05;;;11.80;99.90;;;;;;4985248;28;20070;-87
2021/03/28 14:09:55;;;;;;;11.88;1.75;;;11.90;99.90;;;;;;4982136;28;20482;-86
2021/03/28 14:12:41;;;;;;;9.40;1.67;;;11.90;99.90;;;;;;4963188;28;20436;-87
2021/03/28 14:15:33;;;;;;;8.52;2.15;;;12.00;99.90;;;;;;4973394;28;20152;-87
2021/03/28 14:18:06;;;;;;;10.18;1.98;;;12.10;99.90;;;;;;4987235;28;20049;-87
2021/03/28 14:20:37;;;;;;;8.23;2.45;;;12.10;99.90;;;;;;4977617;28;20131;-87
2021/03/28 14:23:13;;;;;;;12.48;1.98;;;12.10;99.90;;;;;;4989445;28;20104;-87